Terminal Aerodrome Forecast
Issued by NWS

Home | Current Version | Previous Version | Text Only | Print | Product List | Glossary On
Versions: 1 2 3 4 5 6 7 8 9 10 11 12 13 14 15 16 17 18 19 20
000
FTUS44 KBMX 010124 AAC
TAFMGM
TAF AMD
KMGM 010124Z 0101/0124 21007KT P6SM VCSH BKN090
     FM010500 19007KT P6SM BKN090
     FM010900 VRB02KT P6SM VCSH BKN015 BKN090
     FM011500 18008KT P6SM VCSH BKN040=

USA.gov is the U.S. government's official web portal to all federal, state and local government web resources and services.